createdAt,value
2024-03-14T03:02:51.206Z,79096.91
2024-03-14T03:06:55.511Z,79098.00
2024-03-14T03:09:25.908Z,79107.72
2024-03-14T03:11:55.858Z,79111.22
2024-03-14T03:14:26.228Z,79098.31
2024-03-14T03:16:56.959Z,79114.81
2024-03-14T03:19:26.790Z,79123.22
2024-03-14T03:21:56.507Z,79133.31
2024-03-14T03:24:26.548Z,79132.50
2024-03-14T03:26:56.451Z,79139.28
2024-03-14T03:29:26.930Z,79146.56
2024-03-14T03:31:57.054Z,79132.28
2024-03-14T03:34:27.014Z,79136.03
2024-03-14T03:36:56.998Z,79124.97
2024-03-14T03:39:28.371Z,79109.81
2024-03-14T03:41:58.311Z,79099.59
2024-03-14T03:44:29.115Z,79108.28
2024-03-14T03:46:59.123Z,79114.41
2024-03-14T03:49:30.532Z,79114.16
2024-03-14T03:52:00.360Z,79121.56
2024-03-14T03:54:30.300Z,79116.91
2024-03-14T03:57:02.233Z,79118.41
2024-03-14T03:59:33.055Z,79110.66
2024-03-14T04:02:05.356Z,79125.81
2024-03-14T04:04:35.957Z,79133.66
2024-03-14T04:07:06.034Z,79139.34
2024-03-14T04:09:37.527Z,79133.09
2024-03-14T04:12:09.633Z,79142.03
2024-03-14T04:14:45.452Z,79144.13
2024-03-14T04:17:18.708Z,79147.38
2024-03-14T04:19:48.580Z,79142.38
2024-03-14T04:22:18.185Z,79158.72
2024-03-14T04:24:48.019Z,79156.06
2024-03-14T04:27:18.346Z,79170.16
2024-03-14T04:29:50.456Z,79177.28
2024-03-14T04:32:20.575Z,79160.03
2024-03-14T04:34:50.302Z,79183.00
2024-03-14T04:37:20.209Z,79177.97
2024-03-14T04:39:49.938Z,79186.19
2024-03-14T04:42:20.723Z,79178.19
2024-03-14T04:44:50.843Z,79190.84
2024-03-14T04:47:25.436Z,79187.56
2024-03-14T04:49:55.086Z,79186.34
2024-03-14T04:52:25.392Z,79193.78
2024-03-14T04:54:55.967Z,79202.97
2024-03-14T04:57:25.923Z,79196.56
2024-03-14T04:59:56.730Z,79199.00
2024-03-14T05:02:26.695Z,79198.88
2024-03-14T05:04:56.325Z,79199.88
2024-03-14T05:07:27.983Z,79209.13
2024-03-14T05:09:57.734Z,79208.59
2024-03-14T05:12:27.356Z,79201.59
2024-03-14T05:14:57.615Z,79204.69
2024-03-14T05:17:27.547Z,79212.81
2024-03-14T05:19:58.199Z,79217.34
2024-03-14T05:22:37.138Z,79232.50
2024-03-14T05:25:11.884Z,79210.44
2024-03-14T05:27:41.648Z,79220.09
2024-03-14T05:30:15.596Z,79222.41
2024-03-14T05:32:47.392Z,79232.19
2024-03-14T05:35:17.222Z,79219.94
2024-03-14T05:37:47.951Z,79238.75
2024-03-14T05:40:17.898Z,79233.16
2024-03-14T05:42:47.557Z,79241.72
2024-03-14T05:45:18.887Z,79240.53
2024-03-14T05:47:48.966Z,79226.38
2024-03-14T05:50:19.182Z,79245.06
2024-03-14T05:52:50.004Z,79242.59
2024-03-14T05:55:19.864Z,79243.13
2024-03-14T05:57:49.636Z,79241.50
2024-03-14T06:00:23.384Z,79261.09
2024-03-14T06:02:56.186Z,79250.03
2024-03-14T06:05:30.390Z,79269.75
2024-03-14T06:08:00.229Z,79263.50
2024-03-14T06:10:29.959Z,79254.84
2024-03-14T06:12:59.872Z,79267.28
2024-03-14T06:15:29.468Z,79263.50
2024-03-14T06:17:59.582Z,79257.41
2024-03-14T06:20:29.437Z,79257.53
2024-03-14T06:23:03.011Z,79277.84
2024-03-14T06:25:33.613Z,79260.88
2024-03-14T06:28:05.412Z,79258.72
2024-03-14T06:30:35.477Z,79260.22
2024-03-14T06:33:05.678Z,79261.31
2024-03-14T06:35:36.698Z,79269.81
2024-03-14T06:38:06.560Z,79278.16
2024-03-14T06:40:36.223Z,79272.09
2024-03-14T06:43:09.001Z,79279.97
2024-03-14T06:45:39.562Z,79285.91
2024-03-14T06:48:11.570Z,79280.75
2024-03-14T06:50:41.676Z,79281.34
2024-03-14T06:53:11.600Z,79286.69
2024-03-14T06:55:42.117Z,79289.09
2024-03-14T06:58:13.783Z,79292.16
2024-03-14T07:00:44.940Z,79291.78
2024-03-14T07:03:14.781Z,79289.97
2024-03-14T07:05:45.706Z,79280.63
2024-03-14T07:08:15.505Z,79270.00
2024-03-14T07:10:45.609Z,79303.47
2024-03-14T07:13:15.533Z,79293.97
2024-03-14T07:15:45.264Z,79291.69
2024-03-14T07:18:15.267Z,79303.06
2024-03-14T07:20:47.443Z,79297.09
2024-03-14T07:23:17.929Z,79290.16
2024-03-14T07:25:48.009Z,79302.09
2024-03-14T07:28:18.160Z,79298.28
2024-03-14T07:30:48.437Z,79283.91
2024-03-14T07:33:38.085Z,79282.56
2024-03-14T07:36:08.193Z,79290.69
2024-03-14T07:38:38.376Z,79281.97
2024-03-14T07:41:08.144Z,79281.88
2024-03-14T07:43:37.961Z,79298.94
2024-03-14T07:46:10.348Z,79297.78
2024-03-14T07:48:40.413Z,79293.13
2024-03-14T07:51:11.321Z,79289.03
2024-03-14T07:53:41.541Z,79284.25
2024-03-14T07:56:13.454Z,79285.97
2024-03-14T07:58:46.366Z,79282.88
2024-03-14T08:01:23.519Z,79280.03
2024-03-14T08:03:55.254Z,79276.16
2024-03-14T08:06:27.329Z,79276.50
2024-03-14T08:09:03.595Z,79264.72
2024-03-14T08:11:34.125Z,79247.91
2024-03-14T08:14:08.885Z,79255.72
2024-03-14T08:16:38.851Z,79259.31
2024-03-14T08:19:12.085Z,79258.44
2024-03-14T08:21:42.080Z,79250.75
2024-03-14T08:24:15.202Z,79254.38
2024-03-14T08:26:48.117Z,79249.19
2024-03-14T08:29:17.976Z,79253.13
2024-03-14T08:31:48.059Z,79256.00
2024-03-14T08:34:19.849Z,79247.31
2024-03-14T08:36:49.693Z,79258.56
2024-03-14T08:39:20.848Z,79235.69
2024-03-14T08:41:52.056Z,79256.56
2024-03-14T08:44:26.266Z,79238.19
2024-03-14T08:46:56.639Z,79237.59
2024-03-14T08:49:26.726Z,79250.38
2024-03-14T08:51:56.377Z,79234.44
2024-03-14T08:54:26.537Z,79245.81
2024-03-14T08:57:00.863Z,79239.19
2024-03-14T08:59:32.205Z,79240.19
2024-03-14T09:02:02.723Z,79221.34
2024-03-14T09:04:33.394Z,79239.78
2024-03-14T09:07:03.351Z,79230.03
2024-03-14T09:09:40.053Z,79252.13
2024-03-14T09:12:30.376Z,79236.88
2024-03-14T09:15:01.162Z,79249.13
2024-03-14T09:17:32.005Z,79239.63
2024-03-14T09:20:02.717Z,79238.16
2024-03-14T09:22:33.541Z,79243.22
2024-03-14T09:25:04.175Z,79229.69
2024-03-14T09:27:35.410Z,79230.31
2024-03-14T09:30:10.990Z,79227.25
2024-03-14T09:32:44.388Z,79234.97
2024-03-14T09:35:18.610Z,79230.34
2024-03-14T09:37:50.017Z,79229.00
2024-03-14T09:40:23.516Z,79232.09
2024-03-14T09:43:01.772Z,79229.34
2024-03-14T09:45:32.449Z,79227.09
2024-03-14T09:48:04.319Z,79216.16
2024-03-14T09:50:34.448Z,79222.88
2024-03-14T09:53:08.369Z,79202.47
2024-03-14T09:55:38.805Z,79208.50
2024-03-14T09:58:11.190Z,79202.09
2024-03-14T10:00:41.104Z,79206.25
2024-03-14T10:03:11.616Z,79213.50
2024-03-14T10:05:41.812Z,79208.06
2024-03-14T10:08:13.666Z,79188.22
2024-03-14T10:10:43.654Z,79201.28
2024-03-14T10:13:13.888Z,79208.75
2024-03-14T10:15:44.570Z,79195.34
2024-03-14T10:18:15.663Z,79191.41
2024-03-14T10:20:45.771Z,79187.91
2024-03-14T10:23:19.327Z,79200.44
2024-03-14T10:25:55.895Z,79203.22
2024-03-14T10:28:30.753Z,79203.06
2024-03-14T10:31:04.793Z,79211.59
2024-03-14T10:33:35.615Z,79196.34
2024-03-14T10:36:06.557Z,79200.69
2024-03-14T10:38:40.320Z,79205.03
2024-03-14T10:41:14.460Z,79200.91
2024-03-14T10:43:56.371Z,79191.75
2024-03-14T10:46:26.914Z,79191.63
2024-03-14T10:48:58.271Z,79201.06
2024-03-14T10:51:30.022Z,79191.22
2024-03-14T10:54:01.010Z,79194.13
2024-03-14T10:56:31.675Z,79174.84
2024-03-14T10:59:02.055Z,79187.16
2024-03-14T11:01:33.681Z,79186.41
2024-03-14T11:04:05.332Z,79179.09
2024-03-14T11:06:41.050Z,79181.09
2024-03-14T11:09:13.605Z,79185.25
2024-03-14T11:11:48.656Z,79187.47
2024-03-14T11:14:20.226Z,79193.22
2024-03-14T11:16:58.255Z,79194.53
2024-03-14T11:19:29.894Z,79177.28
2024-03-14T11:22:02.014Z,79186.78
2024-03-14T11:24:35.740Z,79179.72
2024-03-14T11:27:07.588Z,79160.41
2024-03-14T11:29:40.056Z,79178.47
2024-03-14T11:32:14.259Z,79179.91
2024-03-14T11:34:44.097Z,79179.69
2024-03-14T11:37:14.379Z,79163.88
2024-03-14T11:39:49.452Z,79175.94
2024-03-14T11:42:22.677Z,79176.22
2024-03-14T11:44:53.979Z,79165.25
2024-03-14T11:47:44.605Z,79157.41
2024-03-14T11:50:16.697Z,79169.38
2024-03-14T11:52:48.650Z,79172.31
2024-03-14T11:55:20.781Z,79176.16
2024-03-14T11:57:51.134Z,79164.75
2024-03-14T12:00:28.187Z,79174.97
2024-03-14T12:02:58.400Z,79176.50
2024-03-14T12:05:29.656Z,79162.66
2024-03-14T12:08:01.021Z,79171.97
2024-03-14T12:10:31.299Z,79162.09
2024-03-14T12:13:01.956Z,79171.41
2024-03-14T12:15:33.386Z,79162.41
2024-03-14T12:18:03.712Z,79167.56
2024-03-14T12:20:35.128Z,79178.88
2024-03-14T12:23:06.047Z,79171.19
2024-03-14T12:25:39.812Z,79145.22
2024-03-14T12:28:12.451Z,79177.25
2024-03-14T12:30:45.229Z,79170.69
2024-03-14T12:33:16.084Z,79154.25
2024-03-14T12:35:52.111Z,79177.84
2024-03-14T12:38:25.060Z,79170.47
2024-03-14T12:41:00.800Z,79171.94
2024-03-14T12:43:33.286Z,79166.69
2024-03-14T12:46:03.266Z,79181.41
2024-03-14T12:48:33.821Z,79166.28
2024-03-14T12:51:26.315Z,79168.44
2024-03-14T12:54:00.540Z,79163.13
2024-03-14T12:56:31.160Z,79157.25
2024-03-14T12:59:01.638Z,79166.56
2024-03-14T13:01:36.952Z,79166.00
2024-03-14T13:04:12.828Z,79163.47
2024-03-14T13:06:42.649Z,79164.84
2024-03-14T13:09:27.192Z,79168.19
2024-03-14T13:12:24.703Z,79173.66
2024-03-14T13:15:13.645Z,79173.06
2024-03-14T13:17:56.369Z,79155.25
2024-03-14T13:20:29.885Z,79155.94
2024-03-14T13:23:01.018Z,79158.63
2024-03-14T13:25:31.034Z,79161.28
2024-03-14T13:28:01.558Z,79166.66
2024-03-14T13:30:31.774Z,79164.66
2024-03-14T13:33:05.251Z,79173.31
2024-03-14T13:35:35.294Z,79169.97
2024-03-14T13:38:05.147Z,79176.63
2024-03-14T13:40:35.498Z,79156.78
2024-03-14T13:43:15.616Z,79182.59
2024-03-14T13:45:46.982Z,79162.09
2024-03-14T13:48:20.250Z,79160.72
